createdAt,value
2022-10-26T00:01:20.528Z,14.90
2022-10-26T00:04:21.983Z,14.75
2022-10-26T00:07:23.545Z,14.55
2022-10-26T00:10:27.142Z,14.95
2022-10-26T00:13:30.965Z,14.89
2022-10-26T00:16:32.421Z,14.96
2022-10-26T00:19:35.077Z,15.00
2022-10-26T00:22:36.548Z,14.95
2022-10-26T00:25:38.260Z,15.13
2022-10-26T00:28:40.025Z,15.15
2022-10-26T00:31:41.481Z,14.99
2022-10-26T00:34:42.958Z,14.80
2022-10-26T00:37:44.599Z,14.94
2022-10-26T00:40:46.250Z,15.05
2022-10-26T00:43:48.156Z,15.09
2022-10-26T00:46:49.638Z,14.94
2022-10-26T00:49:54.839Z,14.80
2022-10-26T00:52:59.612Z,14.69
2022-10-26T00:56:01.212Z,14.86
2022-10-26T00:59:06.344Z,15.01
2022-10-26T01:02:08.099Z,15.05
2022-10-26T01:05:10.155Z,14.49
2022-10-26T01:08:13.137Z,14.48
2022-10-26T01:11:14.933Z,14.73
2022-10-26T01:14:19.025Z,14.80
2022-10-26T01:17:38.505Z,15.08
2022-10-26T01:20:57.324Z,15.16
2022-10-26T01:24:23.428Z,15.25
2022-10-26T01:27:30.508Z,15.23
2022-10-26T01:30:45.363Z,14.75
2022-10-26T01:33:55.085Z,14.99
2022-10-26T01:37:00.837Z,14.97
2022-10-26T01:40:15.194Z,15.11
2022-10-26T01:43:17.997Z,15.09
2022-10-26T01:46:23.683Z,15.20
2022-10-26T01:49:39.359Z,15.17
2022-10-26T01:52:40.863Z,15.04
2022-10-26T01:55:53.655Z,15.03
2022-10-26T01:59:04.061Z,15.14
2022-10-26T02:02:18.642Z,15.01
2022-10-26T02:05:32.826Z,15.09
2022-10-26T02:08:49.403Z,15.14
2022-10-26T02:11:54.004Z,15.17
2022-10-26T02:15:04.931Z,15.05
2022-10-26T02:18:29.309Z,14.99
2022-10-26T02:21:47.230Z,15.07
2022-10-26T02:24:52.391Z,14.83
2022-10-26T02:28:02.762Z,14.86
2022-10-26T02:31:06.804Z,14.85
2022-10-26T02:34:11.853Z,15.09
2022-10-26T02:37:18.299Z,15.24
2022-10-26T02:40:24.799Z,15.36
2022-10-26T02:43:28.022Z,15.34
2022-10-26T02:46:29.660Z,15.30
2022-10-26T02:49:31.458Z,15.36
2022-10-26T02:52:47.869Z,15.41
2022-10-26T02:55:51.542Z,15.55
2022-10-26T02:58:58.787Z,15.50
2022-10-26T03:02:01.297Z,15.54
2022-10-26T03:05:09.804Z,15.47
2022-10-26T03:08:11.260Z,15.33
2022-10-26T03:11:12.640Z,15.29
2022-10-26T03:14:14.058Z,15.30
2022-10-26T03:17:15.445Z,15.16
2022-10-26T03:20:17.032Z,15.02
2022-10-26T03:23:18.459Z,14.84
2022-10-26T03:26:19.954Z,15.03
2022-10-26T03:29:21.395Z,15.00
2022-10-26T03:32:22.816Z,15.13
2022-10-26T03:35:24.532Z,15.02
2022-10-26T03:38:25.946Z,15.18
2022-10-26T03:41:27.326Z,15.20
2022-10-26T03:44:28.751Z,15.29
2022-10-26T03:47:30.301Z,15.37
2022-10-26T03:50:31.732Z,15.44
2022-10-26T03:53:33.345Z,15.44
2022-10-26T03:56:34.775Z,15.51
2022-10-26T03:59:37.155Z,15.56
2022-10-26T04:02:38.645Z,15.55
2022-10-26T04:05:40.151Z,15.59
2022-10-26T04:08:41.549Z,15.43
2022-10-26T04:11:42.945Z,15.26
2022-10-26T04:14:44.442Z,15.27
2022-10-26T04:17:46.973Z,15.10
2022-10-26T04:20:48.623Z,15.07
2022-10-26T04:23:50.066Z,15.12
2022-10-26T04:26:51.467Z,15.11
2022-10-26T04:29:52.881Z,15.13
2022-10-26T04:32:54.310Z,15.13
2022-10-26T04:36:02.243Z,15.11
2022-10-26T04:39:03.681Z,15.28
2022-10-26T04:42:05.127Z,15.30
2022-10-26T04:45:07.033Z,15.37
2022-10-26T04:48:11.530Z,15.31
2022-10-26T04:51:12.970Z,15.32
2022-10-26T04:54:14.891Z,15.37
2022-10-26T04:57:16.332Z,15.42
2022-10-26T05:00:17.966Z,15.43
2022-10-26T05:03:19.746Z,15.44
2022-10-26T05:06:21.677Z,15.46
2022-10-26T05:09:23.143Z,15.49
2022-10-26T05:12:26.090Z,15.48
2022-10-26T05:15:28.384Z,15.62
2022-10-26T05:18:29.808Z,15.60
2022-10-26T05:21:31.448Z,15.58
2022-10-26T05:24:32.965Z,15.66
2022-10-26T05:27:34.497Z,15.65
2022-10-26T05:30:35.989Z,15.69
2022-10-26T05:33:37.405Z,15.69
2022-10-26T05:36:38.833Z,15.69
2022-10-26T05:39:40.928Z,15.73
2022-10-26T05:42:42.524Z,15.70
2022-10-26T05:45:44.346Z,15.72
2022-10-26T05:48:45.865Z,15.72
2022-10-26T05:51:47.299Z,15.73
2022-10-26T05:54:48.738Z,15.77
2022-10-26T05:57:50.691Z,15.76
2022-10-26T06:01:11.950Z,15.74
2022-10-26T06:04:38.779Z,15.73
2022-10-26T06:07:40.641Z,15.70
2022-10-26T06:10:42.419Z,15.72
2022-10-26T06:13:44.492Z,15.77
2022-10-26T06:17:07.425Z,15.77
2022-10-26T06:20:33.506Z,15.68
2022-10-26T06:23:58.536Z,15.52
2022-10-26T06:27:18.531Z,15.41
2022-10-26T06:30:23.287Z,15.43
2022-10-26T06:33:29.625Z,15.35
2022-10-26T06:36:32.776Z,15.33
2022-10-26T06:39:37.291Z,15.31
2022-10-26T06:42:39.000Z,15.23
2022-10-26T06:45:45.402Z,15.21
2022-10-26T06:49:23.076Z,15.29
2022-10-26T06:52:37.244Z,15.31
2022-10-26T06:55:45.445Z,15.36
2022-10-26T06:58:48.953Z,15.41
2022-10-26T07:01:50.455Z,15.42
2022-10-26T07:04:51.988Z,15.46
2022-10-26T07:07:53.655Z,15.49
2022-10-26T07:10:55.215Z,15.41
2022-10-26T07:13:57.164Z,15.47
2022-10-26T07:16:58.575Z,15.47
2022-10-26T07:20:00.066Z,15.48
2022-10-26T07:23:01.734Z,15.48
2022-10-26T07:26:03.304Z,15.50
2022-10-26T07:29:04.812Z,15.57
2022-10-26T07:32:06.656Z,15.60
2022-10-26T07:35:08.300Z,15.64
2022-10-26T07:38:10.622Z,15.66
2022-10-26T07:41:12.004Z,15.59
2022-10-26T07:44:13.508Z,15.66
2022-10-26T07:47:15.058Z,15.73
2022-10-26T07:50:16.909Z,15.73
2022-10-26T07:53:18.341Z,15.75
2022-10-26T07:56:19.835Z,15.85
2022-10-26T07:59:21.356Z,15.91
2022-10-26T08:02:24.231Z,16.02
2022-10-26T08:05:25.801Z,16.17
2022-10-26T08:08:27.473Z,16.23
2022-10-26T08:11:29.015Z,16.29
2022-10-26T08:14:30.407Z,16.42
2022-10-26T08:17:31.889Z,16.46
2022-10-26T08:20:33.343Z,16.56
2022-10-26T08:23:34.775Z,16.69
2022-10-26T08:26:36.265Z,16.64
2022-10-26T08:29:37.661Z,16.78
2022-10-26T08:32:39.125Z,16.76
2022-10-26T08:35:40.519Z,16.82
2022-10-26T08:38:41.928Z,16.82
2022-10-26T08:41:47.263Z,16.80
2022-10-26T08:44:53.028Z,16.72
2022-10-26T08:48:10.343Z,16.73
2022-10-26T08:51:28.358Z,16.63
2022-10-26T08:54:39.745Z,16.51
2022-10-26T08:57:42.384Z,16.50
2022-10-26T09:00:47.118Z,16.42
2022-10-26T09:03:48.678Z,16.47
2022-10-26T09:07:18.743Z,16.45
2022-10-26T09:10:38.447Z,16.51
2022-10-26T09:13:59.928Z,16.51
2022-10-26T09:17:28.493Z,16.52
2022-10-26T09:20:52.078Z,16.68
2022-10-26T09:24:07.529Z,16.77
2022-10-26T09:27:21.265Z,16.75
2022-10-26T09:30:23.555Z,16.93
2022-10-26T09:33:26.704Z,17.07
2022-10-26T09:36:28.195Z,16.89
2022-10-26T09:39:42.317Z,17.21
2022-10-26T09:42:50.814Z,17.40
2022-10-26T09:45:52.761Z,17.39
2022-10-26T09:48:58.760Z,17.47
2022-10-26T09:52:00.287Z,17.52
2022-10-26T09:55:01.715Z,17.55
2022-10-26T09:58:11.069Z,17.58
2022-10-26T10:01:29.693Z,17.61
2022-10-26T10:04:33.685Z,17.64
2022-10-26T10:07:39.157Z,18.06
2022-10-26T10:11:00.791Z,17.71
2022-10-26T10:14:07.531Z,17.93
2022-10-26T10:17:21.371Z,17.94
2022-10-26T10:20:32.052Z,18.07
2022-10-26T10:23:36.116Z,17.92
2022-10-26T10:27:05.712Z,17.95
2022-10-26T10:30:23.373Z,18.00
2022-10-26T10:33:41.936Z,18.09
2022-10-26T10:36:43.521Z,18.09
2022-10-26T10:39:45.699Z,18.09
2022-10-26T10:42:49.579Z,18.07
2022-10-26T10:45:55.843Z,18.11
2022-10-26T10:49:06.041Z,18.29
2022-10-26T10:52:07.610Z,18.44
2022-10-26T10:55:15.145Z,18.48
2022-10-26T10:58:29.650Z,18.47
2022-10-26T11:01:39.185Z,18.46
2022-10-26T11:05:07.228Z,18.59
2022-10-26T11:08:16.622Z,18.66
2022-10-26T11:11:23.922Z,18.76
2022-10-26T11:14:32.888Z,19.89
2022-10-26T11:18:10.803Z,21.01
2022-10-26T11:21:24.819Z,21.36
2022-10-26T11:24:30.536Z,21.61
2022-10-26T11:27:46.259Z,21.50
2022-10-26T11:30:55.119Z,21.41
2022-10-26T11:34:31.553Z,21.31
2022-10-26T11:37:52.218Z,21.30
2022-10-26T11:41:01.925Z,21.05
2022-10-26T11:44:14.023Z,20.96
2022-10-26T11:47:22.064Z,20.86
2022-10-26T11:50:33.478Z,20.77
2022-10-26T11:53:42.110Z,20.69
2022-10-26T11:56:50.629Z,20.72
2022-10-26T11:59:59.853Z,20.74
2022-10-26T12:03:11.937Z,20.60
2022-10-26T12:06:19.991Z,20.66
2022-10-26T12:09:27.076Z,20.57
2022-10-26T12:12:43.497Z,20.88
2022-10-26T12:16:04.594Z,20.87
2022-10-26T12:19:24.701Z,20.74
2022-10-26T12:22:33.240Z,20.93
2022-10-26T12:25:34.907Z,20.91
2022-10-26T12:28:36.222Z,20.85
2022-10-26T12:31:37.646Z,20.89
2022-10-26T12:34:39.030Z,20.79
2022-10-26T12:37:40.535Z,20.82
2022-10-26T12:40:43.483Z,20.80
2022-10-26T12:46:51.464Z,20.94
2022-10-26T12:50:09.127Z,20.93
2022-10-26T12:53:15.720Z,20.95
2022-10-26T12:56:24.469Z,21.02
2022-10-26T12:59:41.734Z,20.96
2022-10-26T13:03:12.697Z,20.90
2022-10-26T13:06:51.550Z,21.07
2022-10-26T13:10:03.342Z,21.07
2022-10-26T13:13:07.303Z,21.10
2022-10-26T13:16:13.203Z,21.11
2022-10-26T13:19:31.076Z,21.10
2022-10-26T13:22:32.943Z,21.15
2022-10-26T13:25:34.425Z,21.13
2022-10-26T13:28:38.536Z,21.13
2022-10-26T13:31:41.449Z,20.97
2022-10-26T13:34:44.263Z,21.25
2022-10-26T13:37:48.524Z,21.28
2022-10-26T13:40:52.927Z,21.32
2022-10-26T13:43:58.875Z,21.20
2022-10-26T13:47:10.187Z,21.28
2022-10-26T13:50:16.299Z,21.25
2022-10-26T13:53:28.929Z,21.27
2022-10-26T13:56:35.063Z,21.18
2022-10-26T13:59:41.598Z,21.32
2022-10-26T14:02:43.656Z,21.28
2022-10-26T14:05:50.055Z,21.26
2022-10-26T14:08:53.656Z,21.42
2022-10-26T14:11:58.931Z,21.33
2022-10-26T14:15:07.773Z,21.34
2022-10-26T14:18:17.390Z,21.21
2022-10-26T14:21:21.316Z,21.33
2022-10-26T14:24:45.671Z,21.34
2022-10-26T14:27:48.927Z,21.27
2022-10-26T14:30:51.456Z,21.39
2022-10-26T14:33:54.760Z,21.26
2022-10-26T14:37:02.891Z,21.29
2022-10-26T14:40:05.666Z,21.23
2022-10-26T14:43:14.049Z,21.25
2022-10-26T14:46:17.983Z,21.23
2022-10-26T14:49:20.602Z,21.19
2022-10-26T14:52:40.425Z,21.13
2022-10-26T14:55:52.290Z,21.26
2022-10-26T14:58:54.086Z,21.26
2022-10-26T15:02:03.504Z,21.17
2022-10-26T15:05:35.709Z,21.03
2022-10-26T15:08:52.406Z,20.77
2022-10-26T15:11:57.789Z,20.76
2022-10-26T15:15:14.332Z,20.71
2022-10-26T15:18:30.463Z,20.62
2022-10-26T15:21:37.570Z,20.50
2022-10-26T15:24:39.406Z,20.44
2022-10-26T15:27:41.221Z,20.47
2022-10-26T15:31:05.705Z,20.22
2022-10-26T15:34:13.211Z,19.94
2022-10-26T15:37:14.651Z,19.81
2022-10-26T15:40:16.892Z,19.70
2022-10-26T15:43:18.353Z,19.73
2022-10-26T15:46:21.457Z,19.68
2022-10-26T15:49:22.846Z,19.58
2022-10-26T15:52:24.620Z,19.53
2022-10-26T15:55:26.047Z,19.49
2022-10-26T15:58:31.169Z,19.43
2022-10-26T16:01:32.668Z,19.39
2022-10-26T16:04:34.171Z,19.31
2022-10-26T16:07:35.624Z,19.22
2022-10-26T16:10:37.122Z,19.29
2022-10-26T16:13:38.533Z,19.21
2022-10-26T16:16:40.047Z,19.03
2022-10-26T16:19:41.488Z,18.92
2022-10-26T16:22:47.974Z,18.79
2022-10-26T16:25:49.393Z,18.75
2022-10-26T16:28:51.345Z,18.72
2022-10-26T16:31:52.750Z,18.65
2022-10-26T16:34:54.178Z,18.65
2022-10-26T16:37:55.591Z,18.53
2022-10-26T16:41:07.952Z,18.52
2022-10-26T16:44:12.282Z,18.44
2022-10-26T16:47:13.780Z,18.21
2022-10-26T16:50:15.227Z,18.19
2022-10-26T16:53:16.657Z,18.29
2022-10-26T16:56:20.978Z,18.21
2022-10-26T16:59:22.353Z,18.16
2022-10-26T17:02:24.238Z,18.30
2022-10-26T17:05:25.646Z,18.31
2022-10-26T17:08:28.040Z,18.29
2022-10-26T17:11:29.433Z,18.19
2022-10-26T17:14:31.894Z,18.03
2022-10-26T17:17:33.383Z,18.03
2022-10-26T17:20:34.774Z,17.95
2022-10-26T17:23:36.228Z,17.90
2022-10-26T17:26:37.851Z,17.79
2022-10-26T17:29:39.250Z,17.90
2022-10-26T17:32:40.676Z,18.03
2022-10-26T17:35:42.155Z,18.07
2022-10-26T17:38:43.840Z,17.90
2022-10-26T17:41:45.394Z,17.63
2022-10-26T17:44:46.877Z,17.61
2022-10-26T17:47:48.662Z,17.66
2022-10-26T17:50:51.456Z,17.64
2022-10-26T17:53:53.247Z,17.65
2022-10-26T17:56:54.648Z,17.58
2022-10-26T17:59:56.041Z,17.26
2022-10-26T18:06:07.514Z,17.58
2022-10-26T18:09:09.035Z,17.42
2022-10-26T18:12:10.713Z,17.39
2022-10-26T18:15:12.170Z,17.37
2022-10-26T18:18:13.860Z,17.27
2022-10-26T18:21:16.515Z,17.30
2022-10-26T18:24:17.912Z,17.37
2022-10-26T18:27:20.165Z,17.36
2022-10-26T18:30:22.102Z,17.29
2022-10-26T18:33:23.527Z,17.03
2022-10-26T18:36:25.889Z,16.71
2022-10-26T18:39:27.371Z,16.70
2022-10-26T18:42:28.776Z,16.61
2022-10-26T18:45:30.152Z,16.64
2022-10-26T18:48:32.051Z,16.61
2022-10-26T18:51:34.659Z,16.84
2022-10-26T18:54:36.644Z,16.68
2022-10-26T18:57:38.023Z,16.30
2022-10-26T19:00:41.505Z,16.46
2022-10-26T19:03:44.237Z,16.32
2022-10-26T19:06:47.695Z,16.17
2022-10-26T19:09:49.247Z,16.15
2022-10-26T19:12:50.786Z,15.82
2022-10-26T19:16:12.568Z,16.10
2022-10-26T19:19:25.198Z,16.48
2022-10-26T19:22:26.620Z,16.56
2022-10-26T19:25:28.097Z,16.13
2022-10-26T19:28:30.106Z,15.98
2022-10-26T19:31:32.814Z,16.07
2022-10-26T19:34:34.264Z,16.35
2022-10-26T19:37:35.785Z,15.99
2022-10-26T19:40:37.259Z,16.16
2022-10-26T19:43:39.484Z,16.30
2022-10-26T19:46:40.972Z,16.08
2022-10-26T19:49:42.378Z,15.75
2022-10-26T19:52:43.831Z,15.64
2022-10-26T19:55:45.554Z,15.58
2022-10-26T19:58:47.814Z,15.52
2022-10-26T20:01:49.342Z,15.72
2022-10-26T20:04:50.747Z,15.80
2022-10-26T20:07:52.148Z,15.56
2022-10-26T20:10:56.390Z,15.71
2022-10-26T20:13:58.567Z,15.90
2022-10-26T20:17:00.358Z,15.60
2022-10-26T20:20:03.005Z,15.52
2022-10-26T20:23:06.392Z,15.52
2022-10-26T20:26:08.924Z,15.72
2022-10-26T20:29:10.772Z,15.74
2022-10-26T20:32:15.377Z,15.69
2022-10-26T20:35:17.231Z,15.72
2022-10-26T20:38:21.367Z,15.68
2022-10-26T20:41:24.582Z,15.63
2022-10-26T20:44:31.762Z,15.61
2022-10-26T20:47:33.849Z,15.63
2022-10-26T20:50:35.579Z,15.50
2022-10-26T20:53:46.682Z,15.46
2022-10-26T20:56:49.545Z,15.35
2022-10-26T20:59:55.393Z,15.50
2022-10-26T21:02:56.760Z,15.57
2022-10-26T21:05:58.264Z,15.55
2022-10-26T21:08:59.661Z,15.49
2022-10-26T21:12:01.088Z,15.52
2022-10-26T21:15:02.536Z,15.32
2022-10-26T21:18:04.315Z,15.38
2022-10-26T21:21:06.575Z,15.41
2022-10-26T21:24:07.992Z,15.44
2022-10-26T21:27:09.363Z,15.26
2022-10-26T21:30:11.650Z,15.23
2022-10-26T21:33:13.137Z,15.25
2022-10-26T21:36:16.004Z,15.33
2022-10-26T21:39:17.576Z,15.34
2022-10-26T21:42:20.043Z,15.35
2022-10-26T21:45:21.797Z,15.35
2022-10-26T21:48:23.788Z,15.07
2022-10-26T21:51:25.216Z,15.03
2022-10-26T21:54:26.639Z,15.14
2022-10-26T21:57:28.229Z,15.10
2022-10-26T22:00:29.601Z,15.20
2022-10-26T22:03:31.147Z,14.99
2022-10-26T22:06:32.587Z,14.92
2022-10-26T22:09:40.619Z,15.04
2022-10-26T22:12:51.197Z,15.09
2022-10-26T22:16:09.828Z,14.99
2022-10-26T22:19:11.563Z,14.95
2022-10-26T22:22:12.931Z,14.81
2022-10-26T22:25:14.452Z,14.69
2022-10-26T22:28:15.866Z,14.59
2022-10-26T22:31:22.653Z,14.65
2022-10-26T22:34:24.141Z,14.82
2022-10-26T22:37:25.516Z,14.80
2022-10-26T22:40:26.980Z,14.83
2022-10-26T22:43:28.840Z,14.78
2022-10-26T22:46:30.577Z,14.66
2022-10-26T22:49:31.999Z,14.73
2022-10-26T22:52:34.244Z,14.75
2022-10-26T22:55:35.677Z,14.76
2022-10-26T22:58:37.841Z,14.77
2022-10-26T23:01:43.608Z,14.69
2022-10-26T23:04:45.165Z,14.67
2022-10-26T23:07:46.840Z,14.69
2022-10-26T23:10:48.237Z,14.65
2022-10-26T23:13:54.198Z,14.50
2022-10-26T23:16:55.950Z,14.20
2022-10-26T23:19:57.338Z,14.16
2022-10-26T23:22:59.429Z,14.32
2022-10-26T23:26:05.289Z,14.42
2022-10-26T23:29:06.881Z,14.55
2022-10-26T23:32:08.315Z,14.50
2022-10-26T23:35:10.035Z,14.45
2022-10-26T23:38:11.503Z,14.43
2022-10-26T23:41:13.350Z,14.51
2022-10-26T23:44:14.990Z,14.47
2022-10-26T23:47:16.449Z,14.30
2022-10-26T23:50:17.933Z,14.43
2022-10-26T23:53:21.924Z,14.35
2022-10-26T23:56:23.365Z,14.26
2022-10-26T23:59:24.745Z,14.04
